Time;durP1;ratioP1;P1;durP2;ratioP2;P2;SDS_P1;SDS_P2;PMS_P1;PMS_P2;Temp;Humidity;BMP_temperature;BMP_pressure;BME280_temperature;BME280_humidity;BME280_pressure;Samples;Min_cycle;Max_cycle;Signal;HPM_P1;HPM_P2
2021/06/17 00:00:34;;;;;;;4.13;2.40;;;24.80;99.90;;;;;;4966120;28;20985;-78
2021/06/17 00:03:03;;;;;;;2.30;2.10;;;24.80;99.90;;;;;;4967589;28;20943;-78
2021/06/17 00:05:34;;;;;;;3.27;2.13;;;24.80;99.90;;;;;;4975581;28;20447;-79
2021/06/17 00:08:05;;;;;;;3.10;2.37;;;24.70;99.90;;;;;;4972707;28;20442;-78
2021/06/17 00:10:35;;;;;;;2.00;1.90;;;24.60;99.90;;;;;;4967543;28;20470;-78
2021/06/17 00:13:06;;;;;;;3.13;2.83;;;24.60;99.90;;;;;;4972605;28;20455;-78
2021/06/17 00:15:35;;;;;;;2.80;2.17;;;24.60;99.90;;;;;;4971977;28;20521;-78
2021/06/17 00:18:04;;;;;;;2.63;2.40;;;24.50;99.90;;;;;;4978003;28;20581;-78
2021/06/17 00:20:33;;;;;;;2.70;2.37;;;24.50;99.90;;;;;;4966743;28;20533;-78
2021/06/17 00:23:01;;;;;;;2.43;2.23;;;24.50;99.90;;;;;;4972560;28;20451;-79
2021/06/17 00:25:30;;;;;;;2.20;2.00;;;24.50;99.90;;;;;;4968198;28;20463;-79
2021/06/17 00:27:58;;;;;;;2.60;2.40;;;24.40;99.90;;;;;;4967561;28;20450;-79
2021/06/17 00:30:27;;;;;;;2.43;2.23;;;24.40;99.90;;;;;;4969597;28;20517;-79
2021/06/17 00:32:56;;;;;;;4.77;2.80;;;24.40;99.90;;;;;;4977009;28;20518;-79
2021/06/17 00:35:25;;;;;;;2.60;2.47;;;24.30;99.90;;;;;;4972460;28;20497;-79
2021/06/17 00:37:54;;;;;;;2.40;2.23;;;24.30;99.90;;;;;;4979369;28;21271;-81
2021/06/17 00:40:24;;;;;;;3.23;3.03;;;24.30;99.90;;;;;;4977468;28;20471;-79
2021/06/17 00:42:54;;;;;;;3.23;2.63;;;24.30;99.90;;;;;;4972617;28;20450;-79
2021/06/17 00:45:25;;;;;;;3.27;3.00;;;24.20;99.90;;;;;;4973380;28;20459;-79
2021/06/17 00:47:54;;;;;;;5.40;3.50;;;24.20;99.90;;;;;;4970976;28;20447;-78
2021/06/17 00:50:23;;;;;;;7.10;2.80;;;24.10;99.90;;;;;;4985503;28;20530;-78
2021/06/17 00:52:52;;;;;;;3.60;3.00;;;24.10;99.90;;;;;;4971178;28;20451;-80
2021/06/17 00:55:20;;;;;;;2.90;2.60;;;24.10;99.90;;;;;;4975452;28;20732;-79
2021/06/17 00:57:49;;;;;;;2.60;2.40;;;24.10;99.90;;;;;;4972180;28;20459;-80
2021/06/17 01:00:22;;;;;;;2.90;2.70;;;24.10;99.90;;;;;;4972292;28;20541;-79
2021/06/17 01:02:50;;;;;;;3.10;2.67;;;24.00;99.90;;;;;;4976070;28;20518;-80
2021/06/17 01:05:20;;;;;;;2.93;2.70;;;24.00;99.90;;;;;;4980712;28;21016;-80
2021/06/17 01:08:00;;;;;;;3.80;2.60;;;24.00;99.90;;;;;;4967110;28;20461;-78
2021/06/17 01:10:37;;;;;;;3.17;2.90;;;23.90;99.90;;;;;;4972548;28;20478;-79
2021/06/17 01:13:13;;;;;;;9.03;2.73;;;23.90;99.90;;;;;;4981081;28;20517;-79
2021/06/17 01:16:12;;;;;;;2.57;2.37;;;23.90;99.90;;;;;;4971382;28;21131;-79
2021/06/17 01:18:46;;;;;;;3.30;2.30;;;23.90;99.90;;;;;;4983406;28;20485;-80
2021/06/17 01:21:27;;;;;;;2.73;2.53;;;23.80;99.90;;;;;;4965493;28;20483;-79
2021/06/17 01:24:08;;;;;;;3.40;2.30;;;23.80;99.90;;;;;;4971733;28;20474;-79
2021/06/17 01:27:15;;;;;;;2.73;2.53;;;23.80;99.90;;;;;;4971524;28;20455;-78
2021/06/17 01:29:49;;;;;;;2.10;1.90;;;23.70;99.90;;;;;;4939193;29;20504;-79
2021/06/17 01:32:18;;;;;;;2.33;2.07;;;23.70;99.90;;;;;;4962986;28;20455;-78
2021/06/17 01:34:50;;;;;;;3.27;2.60;;;23.70;99.90;;;;;;4978827;28;20454;-79
2021/06/17 01:37:22;;;;;;;2.90;2.60;;;23.70;99.90;;;;;;4969261;28;21050;-77
2021/06/17 01:39:52;;;;;;;2.20;2.10;;;23.70;99.90;;;;;;4970910;28;21192;-77
2021/06/17 01:42:23;;;;;;;2.03;1.93;;;23.60;99.90;;;;;;4978205;28;20521;-77
2021/06/17 01:44:54;;;;;;;3.00;2.70;;;23.60;99.90;;;;;;4969757;28;20455;-78
2021/06/17 01:47:25;;;;;;;2.70;2.40;;;23.50;99.90;;;;;;4972309;28;20509;-77
2021/06/17 01:49:53;;;;;;;3.33;2.50;;;23.60;99.90;;;;;;4971883;28;20531;-79
2021/06/17 01:52:24;;;;;;;2.70;2.50;;;23.50;99.90;;;;;;4970252;28;21002;-77
2021/06/17 01:54:54;;;;;;;2.93;2.63;;;23.50;99.90;;;;;;4968804;28;20451;-79
2021/06/17 01:57:23;;;;;;;3.80;2.63;;;23.50;99.90;;;;;;4971929;28;20459;-79
2021/06/17 01:59:54;;;;;;;2.80;2.60;;;23.40;99.90;;;;;;4967087;28;20598;-78
2021/06/17 02:02:23;;;;;;;2.40;2.20;;;23.40;99.90;;;;;;4971369;28;21138;-76
2021/06/17 02:04:53;;;;;;;3.53;3.30;;;23.40;99.90;;;;;;4967114;28;20455;-77
2021/06/17 02:07:24;;;;;;;3.10;2.90;;;23.40;99.90;;;;;;4972018;28;20452;-80
2021/06/17 02:09:54;;;;;;;3.10;2.80;;;23.40;99.90;;;;;;4953709;28;20487;-77
2021/06/17 02:12:22;;;;;;;3.37;2.77;;;23.30;99.90;;;;;;4970296;28;20856;-78
2021/06/17 02:14:54;;;;;;;2.73;2.53;;;23.30;99.90;;;;;;4969699;28;20840;-79
2021/06/17 02:17:23;;;;;;;2.97;2.77;;;23.30;99.90;;;;;;4971910;28;20978;-79
2021/06/17 02:19:52;;;;;;;3.73;3.40;;;23.30;99.90;;;;;;4977084;28;20483;-79
2021/06/17 02:22:23;;;;;;;3.10;2.60;;;23.20;99.90;;;;;;4977920;28;20494;-78
2021/06/17 02:24:55;;;;;;;3.00;2.57;;;23.20;99.90;;;;;;4976508;28;20554;-80
2021/06/17 02:27:29;;;;;;;2.90;2.70;;;23.20;99.90;;;;;;4971358;28;20463;-79
2021/06/17 02:30:02;;;;;;;3.63;2.70;;;23.20;99.90;;;;;;4975927;28;20478;-78
2021/06/17 02:32:32;;;;;;;3.33;3.03;;;23.20;99.90;;;;;;4973463;28;20447;-79
2021/06/17 02:35:04;;;;;;;2.77;2.57;;;23.20;99.90;;;;;;4964091;28;20447;-79
2021/06/17 02:37:33;;;;;;;3.60;3.33;;;23.10;99.90;;;;;;4981053;28;20458;-80
2021/06/17 02:40:02;;;;;;;4.50;3.53;;;23.10;99.90;;;;;;4976296;28;20490;-79
2021/06/17 02:42:34;;;;;;;3.03;2.73;;;23.10;99.90;;;;;;4971461;28;20509;-78
2021/06/17 02:45:05;;;;;;;4.00;3.23;;;23.00;99.90;;;;;;4973367;28;20532;-77
2021/06/17 02:47:35;;;;;;;3.00;2.73;;;23.00;99.90;;;;;;4970478;28;20454;-78
2021/06/17 02:50:06;;;;;;;4.40;4.00;;;23.00;99.90;;;;;;4959046;28;20567;-78
2021/06/17 02:52:34;;;;;;;4.33;2.87;;;23.00;99.90;;;;;;4969322;28;20459;-79
2021/06/17 02:55:02;;;;;;;4.23;3.37;;;23.00;99.90;;;;;;4971447;28;20600;-79
2021/06/17 02:57:42;;;;;;;4.13;3.63;;;22.90;99.90;;;;;;4965868;28;20518;-79
2021/06/17 03:00:15;;;;;;;4.10;3.57;;;22.90;99.90;;;;;;4964390;28;20484;-80
2021/06/17 03:02:53;;;;;;;4.37;3.70;;;22.80;99.90;;;;;;4964968;28;20462;-80
2021/06/17 03:05:25;;;;;;;5.07;4.57;;;22.80;99.90;;;;;;4965566;28;20535;-78
2021/06/17 03:08:00;;;;;;;5.27;3.40;;;22.80;99.90;;;;;;4963374;28;20463;-79
2021/06/17 03:10:30;;;;;;;4.37;3.90;;;22.70;99.90;;;;;;4956086;28;20521;-80
2021/06/17 03:13:03;;;;;;;3.70;3.40;;;22.70;99.90;;;;;;4970850;28;20460;-80
2021/06/17 03:15:37;;;;;;;4.70;3.90;;;22.70;99.90;;;;;;4970214;28;20445;-79
2021/06/17 03:18:08;;;;;;;4.17;3.20;;;22.70;99.90;;;;;;4961338;28;20534;-78
2021/06/17 03:20:40;;;;;;;3.57;3.27;;;22.80;99.90;;;;;;4965282;28;20860;-79
2021/06/17 03:23:12;;;;;;;3.63;3.30;;;22.70;99.90;;;;;;4973426;28;20445;-79
2021/06/17 03:25:42;;;;;;;4.47;3.20;;;22.70;99.90;;;;;;4970046;28;20457;-79
2021/06/17 03:28:14;;;;;;;3.33;3.00;;;22.60;99.90;;;;;;4969562;28;20447;-78
2021/06/17 03:30:51;;;;;;;3.37;2.70;;;22.60;99.90;;;;;;4974615;28;20478;-78
2021/06/17 03:33:22;;;;;;;3.30;3.00;;;22.50;99.90;;;;;;4968626;28;20471;-80
2021/06/17 03:35:52;;;;;;;3.60;3.17;;;22.60;99.90;;;;;;4968197;28;20823;-79
2021/06/17 03:38:22;;;;;;;4.17;3.40;;;22.60;99.90;;;;;;4984483;28;20507;-79
2021/06/17 03:40:52;;;;;;;3.30;3.00;;;22.50;99.90;;;;;;4970610;28;20573;-80
2021/06/17 03:43:22;;;;;;;4.67;3.47;;;22.50;99.90;;;;;;4969787;28;20459;-79
2021/06/17 03:45:54;;;;;;;3.47;3.27;;;22.50;99.90;;;;;;4970260;28;20473;-80
2021/06/17 03:48:23;;;;;;;3.90;3.50;;;22.60;99.90;;;;;;4969454;28;20501;-79
2021/06/17 03:50:53;;;;;;;3.77;3.37;;;22.50;99.90;;;;;;4986157;28;20458;-79
2021/06/17 03:53:21;;;;;;;3.10;2.63;;;22.50;99.90;;;;;;4976386;28;20474;-78
2021/06/17 03:55:54;;;;;;;3.97;3.67;;;22.50;99.90;;;;;;4975446;28;20949;-78
2021/06/17 03:58:24;;;;;;;3.80;3.50;;;22.50;99.90;;;;;;4969801;28;20467;-79
2021/06/17 04:00:54;;;;;;;3.70;3.40;;;22.40;99.90;;;;;;4961594;28;20521;-79
2021/06/17 04:03:26;;;;;;;4.20;3.07;;;22.50;99.90;;;;;;4967402;28;20467;-79
2021/06/17 04:05:56;;;;;;;3.87;3.57;;;22.50;99.90;;;;;;4967698;28;20462;-79
2021/06/17 04:08:30;;;;;;;3.70;3.40;;;22.50;99.90;;;;;;4978741;28;20464;-79
2021/06/17 04:11:00;;;;;;;4.07;3.30;;;22.40;99.90;;;;;;4975133;28;20483;-77
2021/06/17 04:13:33;;;;;;;5.03;3.20;;;22.50;99.90;;;;;;4979196;28;20465;-79
2021/06/17 04:16:03;;;;;;;4.10;3.70;;;22.50;99.90;;;;;;4963233;28;20592;-77
2021/06/17 04:18:32;;;;;;;4.63;4.07;;;22.50;99.90;;;;;;4972069;28;20465;-77
2021/06/17 04:21:01;;;;;;;3.77;3.47;;;22.50;99.90;;;;;;4969426;28;20556;-76
2021/06/17 04:23:31;;;;;;;3.73;3.33;;;22.50;99.90;;;;;;4966014;28;20538;-77
2021/06/17 04:26:01;;;;;;;4.27;3.10;;;22.40;99.90;;;;;;4972518;28;20518;-77
2021/06/17 04:28:31;;;;;;;4.10;3.80;;;22.40;99.90;;;;;;4964997;28;20822;-77
2021/06/17 04:31:02;;;;;;;4.63;4.20;;;22.50;99.90;;;;;;4961117;28;20886;-76
2021/06/17 04:33:31;;;;;;;3.43;3.13;;;22.50;99.90;;;;;;4970125;28;20458;-77
2021/06/17 04:36:03;;;;;;;4.40;4.00;;;22.50;99.90;;;;;;4968456;28;20453;-70
2021/06/17 04:38:32;;;;;;;3.90;3.60;;;22.40;99.90;;;;;;4969120;28;20450;-68
2021/06/17 04:41:01;;;;;;;6.50;3.63;;;22.30;99.90;;;;;;4975757;28;20490;-69
2021/06/17 04:43:32;;;;;;;3.50;3.17;;;22.20;99.90;;;;;;4967292;28;20457;-65
2021/06/17 04:46:02;;;;;;;6.00;3.93;;;22.20;99.90;;;;;;4966819;28;20466;-69
2021/06/17 04:48:34;;;;;;;4.00;3.70;;;22.20;99.90;;;;;;4974352;28;20443;-70
2021/06/17 04:51:03;;;;;;;6.17;3.33;;;22.20;99.90;;;;;;4975260;28;20478;-70
2021/06/17 04:53:32;;;;;;;4.17;3.87;;;22.20;99.90;;;;;;4965824;28;20451;-69
2021/06/17 04:56:00;;;;;;;3.83;3.53;;;22.20;99.90;;;;;;4972645;28;21152;-69
2021/06/17 04:58:28;;;;;;;5.87;4.30;;;22.20;99.90;;;;;;4973684;28;20450;-69
2021/06/17 05:00:56;;;;;;;4.90;3.87;;;22.20;99.90;;;;;;4970513;28;20470;-69
2021/06/17 05:03:26;;;;;;;3.33;3.10;;;22.20;99.90;;;;;;4972316;28;20558;-69
2021/06/17 05:05:57;;;;;;;4.43;3.20;;;22.20;99.90;;;;;;4973489;28;20487;-69
2021/06/17 05:11:11;;;;;;;3.60;3.33;;;22.30;99.90;;;;;;4968434;28;20467;-70
2021/06/17 05:13:42;;;;;;;3.30;2.90;;;22.40;99.90;;;;;;4971555;28;20567;-73
2021/06/17 05:16:10;;;;;;;4.10;3.23;;;22.50;99.90;;;;;;4967632;28;20467;-77
2021/06/17 05:18:40;;;;;;;3.50;3.20;;;22.70;99.90;;;;;;4962255;28;20930;-80
2021/06/17 05:21:09;;;;;;;2.90;2.70;;;22.80;99.90;;;;;;4968600;28;20714;-81
2021/06/17 05:23:39;;;;;;;3.37;3.10;;;22.90;99.90;;;;;;4973603;28;20467;-78
2021/06/17 05:26:08;;;;;;;4.47;2.60;;;22.90;99.90;;;;;;4971468;28;20533;-80
2021/06/17 05:28:36;;;;;;;3.10;2.80;;;23.00;99.90;;;;;;4971058;28;20963;-78
2021/06/17 05:31:07;;;;;;;3.50;3.20;;;23.00;99.90;;;;;;4968496;28;20475;-79
2021/06/17 05:33:35;;;;;;;2.67;2.50;;;23.00;99.90;;;;;;4971216;28;20526;-78
2021/06/17 05:36:06;;;;;;;3.13;2.37;;;23.10;99.90;;;;;;4968207;28;20451;-79
2021/06/17 05:38:34;;;;;;;4.37;3.00;;;23.20;99.90;;;;;;4969854;28;20506;-79
2021/06/17 05:41:02;;;;;;;4.33;2.57;;;23.20;99.90;;;;;;4972197;28;20471;-78
2021/06/17 05:43:30;;;;;;;2.17;2.07;;;23.30;99.90;;;;;;4970715;28;20467;-79
2021/06/17 05:45:59;;;;;;;2.90;2.13;;;23.30;99.90;;;;;;4971273;28;20451;-79
2021/06/17 05:48:29;;;;;;;3.33;2.00;;;23.30;99.90;;;;;;4969816;28;20830;-79
2021/06/17 05:50:57;;;;;;;3.17;2.33;;;23.30;99.90;;;;;;4962125;28;20982;-79
2021/06/17 05:53:26;;;;;;;3.57;2.70;;;23.30;99.90;;;;;;4971020;28;20498;-79
2021/06/17 05:55:55;;;;;;;3.10;2.50;;;23.40;99.90;;;;;;4971788;28;20517;-77
2021/06/17 05:58:23;;;;;;;2.77;2.57;;;23.40;99.90;;;;;;4969733;28;21199;-79
2021/06/17 06:00:51;;;;;;;2.00;1.80;;;23.50;99.90;;;;;;4971047;28;20467;-78
2021/06/17 06:03:19;;;;;;;2.90;2.70;;;23.50;99.90;;;;;;4971425;28;20447;-77
2021/06/17 06:05:47;;;;;;;2.13;2.00;;;23.60;99.90;;;;;;4970645;28;20459;-79
2021/06/17 06:08:16;;;;;;;1.90;1.80;;;23.60;99.90;;;;;;4971554;28;20459;-80
2021/06/17 06:10:45;;;;;;;3.93;2.50;;;23.70;99.90;;;;;;4970482;28;21124;-78
2021/06/17 06:13:14;;;;;;;1.97;1.87;;;23.70;99.90;;;;;;4961157;28;20462;-79
2021/06/17 06:15:43;;;;;;;3.00;2.57;;;23.80;99.90;;;;;;4970358;28;20456;-78
2021/06/17 06:18:13;;;;;;;2.00;1.87;;;23.80;99.90;;;;;;4969943;28;20459;-78
2021/06/17 06:20:44;;;;;;;2.33;2.13;;;23.80;99.90;;;;;;4971341;28;20880;-79
2021/06/17 06:23:12;;;;;;;3.60;1.90;;;23.90;99.90;;;;;;4962868;28;20468;-79
2021/06/17 06:25:44;;;;;;;2.80;2.60;;;23.90;99.90;;;;;;4953225;28;20444;-80
2021/06/17 06:28:14;;;;;;;2.03;1.93;;;23.90;99.90;;;;;;4971662;28;20479;-80
2021/06/17 06:30:42;;;;;;;2.60;2.40;;;24.00;99.90;;;;;;4970424;28;20483;-80
2021/06/17 06:33:10;;;;;;;4.07;2.27;;;24.10;99.90;;;;;;4973096;28;20463;-80
2021/06/17 06:35:38;;;;;;;3.30;2.40;;;24.10;99.90;;;;;;4971788;28;20534;-77
2021/06/17 06:38:07;;;;;;;2.50;2.30;;;24.20;99.90;;;;;;4970211;28;20463;-80
2021/06/17 06:40:37;;;;;;;3.73;2.30;;;24.10;99.90;;;;;;4972541;28;20506;-81
2021/06/17 06:43:07;;;;;;;2.50;2.30;;;24.20;99.90;;;;;;4971446;28;20458;-81
2021/06/17 06:45:41;;;;;;;3.03;1.60;;;24.20;99.90;;;;;;4972819;28;20438;-80
2021/06/17 06:48:10;;;;;;;2.13;1.97;;;24.30;99.90;;;;;;4971318;28;20455;-79
2021/06/17 06:50:39;;;;;;;2.03;1.90;;;24.40;99.90;;;;;;4955822;28;20486;-79
2021/06/17 06:53:07;;;;;;;2.00;1.90;;;24.50;99.90;;;;;;4973133;28;20454;-81
2021/06/17 06:55:35;;;;;;;3.13;2.20;;;24.50;99.90;;;;;;4971174;28;20462;-81
2021/06/17 06:58:04;;;;;;;2.60;2.40;;;24.50;99.90;;;;;;4964012;28;20452;-82
2021/06/17 07:00:33;;;;;;;2.23;2.07;;;24.60;99.90;;;;;;4957255;28;20502;-80
2021/06/17 07:03:03;;;;;;;4.20;2.03;;;24.70;99.90;;;;;;4959004;28;20515;-79
2021/06/17 07:05:31;;;;;;;2.90;2.10;;;24.70;99.90;;;;;;4970116;28;20447;-80
2021/06/17 07:08:00;;;;;;;2.67;2.10;;;24.80;99.90;;;;;;4966475;28;20465;-79
2021/06/17 07:10:28;;;;;;;2.57;2.20;;;24.80;99.90;;;;;;4970413;28;21063;-81
2021/06/17 07:12:56;;;;;;;2.40;2.20;;;24.90;99.90;;;;;;4972797;28;20443;-80
2021/06/17 07:15:24;;;;;;;2.57;2.20;;;25.00;99.90;;;;;;4970871;28;20494;-81
2021/06/17 07:17:53;;;;;;;3.00;2.20;;;25.10;99.90;;;;;;4972299;28;20483;-79
2021/06/17 07:20:22;;;;;;;2.50;2.30;;;25.10;99.90;;;;;;4970232;28;20483;-80
2021/06/17 07:22:54;;;;;;;2.77;2.20;;;25.20;99.90;;;;;;4971446;28;20482;-80
2021/06/17 07:25:24;;;;;;;2.00;1.90;;;25.20;99.90;;;;;;4970915;28;20459;-80
2021/06/17 07:27:52;;;;;;;2.37;2.17;;;25.30;99.90;;;;;;4970990;28;20514;-80
2021/06/17 07:30:23;;;;;;;3.50;2.10;;;25.30;99.90;;;;;;4967833;28;20526;-80
2021/06/17 07:32:52;;;;;;;2.00;1.80;;;25.30;99.90;;;;;;4952247;28;20456;-79
2021/06/17 07:35:20;;;;;;;2.73;2.33;;;25.40;99.90;;;;;;4954244;28;20464;-81
2021/06/17 07:37:50;;;;;;;2.20;2.00;;;25.50;99.90;;;;;;4962996;28;20510;-79
2021/06/17 07:40:19;;;;;;;2.20;2.10;;;25.60;99.90;;;;;;4967479;28;20530;-80
2021/06/17 07:42:48;;;;;;;3.00;2.33;;;25.60;99.90;;;;;;4951066;29;21105;-83
2021/06/17 07:45:16;;;;;;;4.00;2.20;;;25.70;99.90;;;;;;4968024;28;20518;-79
2021/06/17 07:47:45;;;;;;;1.97;1.80;;;25.70;99.90;;;;;;4965434;28;20451;-79
2021/06/17 07:50:13;;;;;;;3.60;2.07;;;25.70;99.90;;;;;;4969675;28;20455;-78
2021/06/17 07:52:42;;;;;;;1.90;1.70;;;25.80;99.90;;;;;;4969626;28;20455;-79
2021/06/17 07:55:12;;;;;;;2.40;2.00;;;25.80;99.90;;;;;;4969970;28;20888;-80
2021/06/17 07:57:42;;;;;;;2.67;1.77;;;25.90;99.90;;;;;;4967237;28;20467;-80
2021/06/17 08:00:11;;;;;;;4.40;2.23;;;25.90;99.90;;;;;;4976665;28;20478;-79
2021/06/17 08:02:39;;;;;;;2.00;1.80;;;26.00;99.90;;;;;;4970124;28;20571;-77
2021/06/17 08:05:09;;;;;;;2.03;1.80;;;26.00;99.90;;;;;;4967814;28;20859;-80
2021/06/17 08:07:37;;;;;;;1.63;1.53;;;26.00;99.90;;;;;;4961702;28;21053;-80
2021/06/17 08:10:07;;;;;;;4.40;2.47;;;26.00;99.90;;;;;;4968329;28;20479;-80
2021/06/17 08:12:37;;;;;;;2.33;2.13;;;26.10;99.90;;;;;;4967978;28;20459;-80
2021/06/17 08:15:07;;;;;;;2.23;2.13;;;26.20;99.90;;;;;;4967301;28;20968;-80
2021/06/17 08:17:36;;;;;;;2.00;1.90;;;26.30;99.90;;;;;;4966840;28;20482;-79
2021/06/17 08:20:08;;;;;;;2.03;1.80;;;26.30;99.90;;;;;;4974983;28;20549;-79
2021/06/17 08:22:37;;;;;;;2.60;2.40;;;26.40;99.90;;;;;;4951486;28;20468;-79
2021/06/17 08:25:07;;;;;;;2.13;1.93;;;26.40;99.90;;;;;;4970129;28;20451;-79
2021/06/17 08:27:37;;;;;;;1.93;1.83;;;26.40;99.90;;;;;;4965317;28;20448;-80
2021/06/17 08:30:07;;;;;;;2.27;2.03;;;26.50;99.90;;;;;;4948658;28;20484;-79
2021/06/17 08:32:36;;;;;;;2.20;2.10;;;26.50;99.90;;;;;;4951179;28;20462;-79
2021/06/17 08:35:05;;;;;;;2.30;1.80;;;26.50;99.90;;;;;;4968531;28;20483;-80
2021/06/17 08:37:33;;;;;;;4.17;2.57;;;26.60;99.90;;;;;;4971669;28;20453;-79
2021/06/17 08:40:02;;;;;;;1.80;1.70;;;26.60;99.90;;;;;;4953567;28;20489;-79
2021/06/17 08:42:31;;;;;;;2.60;2.37;;;26.70;99.90;;;;;;4962130;28;21128;-79
2021/06/17 08:45:05;;;;;;;2.77;2.30;;;26.70;99.90;;;;;;4969170;28;20883;-79
2021/06/17 08:47:35;;;;;;;1.90;1.80;;;26.70;99.90;;;;;;4972125;28;20459;-83
2021/06/17 08:50:07;;;;;;;2.20;2.00;;;26.80;99.90;;;;;;4971033;28;20471;-80
2021/06/17 08:52:39;;;;;;;1.80;1.70;;;26.80;99.90;;;;;;4973098;28;20445;-80
2021/06/17 08:55:18;;;;;;;3.00;2.40;;;26.90;99.90;;;;;;4972735;28;20459;-81
2021/06/17 08:57:49;;;;;;;1.87;1.77;;;26.90;99.90;;;;;;4963253;28;20522;-80
2021/06/17 09:00:32;;;;;;;2.40;2.20;;;27.00;99.90;;;;;;4965512;28;20470;-80
2021/06/17 09:03:02;;;;;;;1.83;1.70;;;27.00;99.90;;;;;;4972036;28;20491;-81
2021/06/17 09:05:32;;;;;;;2.30;2.10;;;27.10;99.90;;;;;;4956939;28;20467;-79
2021/06/17 09:08:01;;;;;;;2.83;2.17;;;27.20;99.90;;;;;;4968481;28;20513;-79
2021/06/17 09:10:30;;;;;;;2.83;2.57;;;27.20;99.90;;;;;;4969352;28;20876;-79
2021/06/17 09:13:00;;;;;;;2.73;2.53;;;27.20;99.90;;;;;;4971550;28;20458;-79
2021/06/17 09:15:37;;;;;;;2.20;2.00;;;27.30;99.90;;;;;;4973310;28;20497;-78
2021/06/17 09:18:24;;;;;;;2.33;2.00;;;27.30;99.90;;;;;;4971208;28;20517;-80
2021/06/17 09:20:58;;;;;;;2.03;1.87;;;27.30;99.90;;;;;;4972415;28;20486;-80
2021/06/17 09:23:32;;;;;;;4.10;2.93;;;27.40;99.90;;;;;;4971363;28;20470;-80
2021/06/17 09:26:03;;;;;;;2.37;2.10;;;27.50;99.90;;;;;;4971595;28;20530;-79
2021/06/17 09:28:46;;;;;;;3.60;2.20;;;27.50;99.90;;;;;;4971863;28;20947;-79
2021/06/17 09:31:18;;;;;;;3.20;1.90;;;27.60;99.90;;;;;;4971613;28;20506;-79
2021/06/17 09:33:48;;;;;;;2.03;1.87;;;27.60;99.90;;;;;;4970886;28;20444;-79
2021/06/17 09:36:16;;;;;;;2.30;2.10;;;27.70;99.90;;;;;;4971822;28;20829;-80
2021/06/17 09:38:47;;;;;;;2.33;2.13;;;27.70;99.90;;;;;;4972273;28;20466;-79
2021/06/17 09:41:37;;;;;;;3.93;2.00;;;27.60;99.90;;;;;;4969562;28;20901;-79
2021/06/17 09:44:07;;;;;;;5.47;2.73;;;27.70;99.90;;;;;;4961265;28;20496;-79
2021/06/17 09:46:36;;;;;;;2.70;2.50;;;27.70;99.90;;;;;;4968286;28;20455;-79
2021/06/17 09:49:07;;;;;;;3.93;2.40;;;27.70;99.90;;;;;;4972909;28;21254;-79
2021/06/17 09:51:41;;;;;;;2.67;2.47;;;27.80;99.90;;;;;;4976679;28;21035;-77
2021/06/17 09:54:18;;;;;;;2.60;2.10;;;27.80;99.90;;;;;;4974765;28;20447;-79
2021/06/17 09:56:57;;;;;;;1.83;1.73;;;27.90;99.90;;;;;;4976168;28;20454;-78
2021/06/17 09:59:37;;;;;;;1.90;1.80;;;27.90;99.90;;;;;;4955719;28;20463;-78
2021/06/17 10:02:08;;;;;;;2.53;2.43;;;27.90;99.90;;;;;;4966965;28;20509;-81
2021/06/17 10:04:37;;;;;;;3.63;1.90;;;27.90;99.90;;;;;;4971369;28;20498;-79
2021/06/17 10:07:07;;;;;;;2.53;2.13;;;27.90;99.90;;;;;;4957367;28;20463;-79
2021/06/17 10:09:35;;;;;;;2.30;2.10;;;27.90;99.90;;;;;;4971918;28;20799;-79
2021/06/17 10:12:05;;;;;;;4.03;2.47;;;27.90;99.90;;;;;;4971327;28;20469;-80
2021/06/17 10:14:33;;;;;;;2.87;2.73;;;27.90;99.90;;;;;;4970282;28;20954;-79
2021/06/17 10:17:03;;;;;;;2.60;2.40;;;27.90;99.90;;;;;;4973013;28;20445;-79
2021/06/17 10:19:33;;;;;;;4.30;2.80;;;28.00;99.90;;;;;;4971067;28;20490;-80
2021/06/17 10:22:02;;;;;;;2.80;2.60;;;28.00;99.90;;;;;;4967496;28;20661;-79
2021/06/17 10:24:37;;;;;;;4.47;3.17;;;28.10;99.90;;;;;;4969329;28;20482;-79
2021/06/17 10:27:09;;;;;;;3.33;3.03;;;28.10;99.90;;;;;;4974210;28;20469;-79
2021/06/17 10:29:40;;;;;;;3.43;3.13;;;28.20;99.90;;;;;;4966752;28;20483;-78
2021/06/17 10:32:11;;;;;;;5.10;3.47;;;28.20;99.90;;;;;;4958279;28;20541;-78
2021/06/17 10:34:43;;;;;;;2.57;2.47;;;28.20;99.90;;;;;;4969349;28;20459;-78
2021/06/17 10:37:14;;;;;;;3.17;2.87;;;28.20;99.90;;;;;;4957634;28;20463;-77
2021/06/17 10:39:43;;;;;;;3.07;2.87;;;28.30;99.90;;;;;;4961408;28;21153;-78
2021/06/17 10:42:17;;;;;;;3.50;2.63;;;28.30;99.90;;;;;;4966550;28;20575;-77
2021/06/17 10:44:51;;;;;;;2.70;2.50;;;28.40;99.90;;;;;;4979650;28;20873;-77
2021/06/17 10:48:13;;;;;;;2.73;2.37;;;28.40;99.90;;;;;;4962317;28;20478;-76
2021/06/17 10:50:55;;;;;;;2.47;2.27;;;28.50;99.90;;;;;;4965522;28;20478;-78
2021/06/17 10:53:44;;;;;;;3.37;2.70;;;28.50;99.90;;;;;;4967840;28;20806;-78
2021/06/17 10:56:16;;;;;;;3.53;2.43;;;28.50;99.90;;;;;;4967323;28;20509;-77
2021/06/17 10:58:54;;;;;;;2.57;2.47;;;28.60;99.90;;;;;;4966319;28;20960;-76
2021/06/17 11:01:24;;;;;;;3.67;2.07;;;28.50;99.90;;;;;;4966039;28;20907;-78
2021/06/17 11:04:01;;;;;;;3.10;2.80;;;28.60;99.90;;;;;;4963815;28;20651;-77
2021/06/17 11:07:16;;;;;;;6.07;3.03;;;28.60;99.90;;;;;;4958422;28;20806;-78
2021/06/17 11:09:56;;;;;;;5.53;2.80;;;28.60;99.90;;;;;;4905587;29;20488;-77
2021/06/17 11:12:59;;;;;;;3.00;2.80;;;28.70;99.90;;;;;;4967600;28;20462;-76
2021/06/17 11:15:47;;;;;;;2.87;2.67;;;28.80;99.90;;;;;;4969404;28;20443;-80
2021/06/17 11:18:52;;;;;;;3.13;2.93;;;28.80;99.90;;;;;;4973735;28;20462;-78
2021/06/17 11:21:49;;;;;;;2.83;2.53;;;28.90;99.90;;;;;;4970995;28;21017;-74
2021/06/17 11:24:36;;;;;;;3.17;2.97;;;28.90;99.90;;;;;;4969661;28;20463;-80
2021/06/17 11:27:27;;;;;;;6.40;3.23;;;28.90;99.90;;;;;;4965905;28;20832;-78
2021/06/17 11:29:57;;;;;;;5.73;3.73;;;28.90;99.90;;;;;;4966906;28;20494;-77
2021/06/17 11:32:28;;;;;;;3.07;2.87;;;29.00;99.90;;;;;;4973047;28;20474;-79
2021/06/17 11:34:56;;;;;;;3.00;2.73;;;29.10;99.90;;;;;;4977316;28;20455;-78
2021/06/17 11:37:31;;;;;;;3.10;2.90;;;29.00;99.90;;;;;;4958122;28;20846;-78
2021/06/17 11:40:02;;;;;;;2.73;2.30;;;29.10;99.90;;;;;;4968458;28;20478;-79
2021/06/17 11:42:31;;;;;;;3.17;2.90;;;29.10;99.90;;;;;;4968117;28;20467;-77
2021/06/17 11:45:02;;;;;;;2.83;2.63;;;29.10;99.90;;;;;;4950388;28;20988;-77
2021/06/17 11:47:30;;;;;;;2.73;2.53;;;29.10;99.90;;;;;;4965216;28;20652;-78
2021/06/17 11:50:06;;;;;;;2.70;2.60;;;29.20;99.90;;;;;;4968124;28;20483;-79
2021/06/17 11:52:40;;;;;;;2.60;2.50;;;29.20;99.90;;;;;;4964516;28;21006;-77
2021/06/17 11:55:11;;;;;;;3.07;2.83;;;29.20;99.90;;;;;;4964917;28;20459;-77
2021/06/17 11:57:40;;;;;;;3.10;2.90;;;29.30;99.90;;;;;;4957260;28;20527;-80
2021/06/17 12:00:10;;;;;;;8.13;3.03;;;29.30;99.90;;;;;;4966829;28;20888;-77
2021/06/17 12:02:53;;;;;;;4.07;2.70;;;29.30;99.90;;;;;;4968699;28;20447;-80
2021/06/17 12:05:22;;;;;;;3.37;3.13;;;29.40;99.90;;;;;;4970646;28;20470;-80
2021/06/17 12:07:52;;;;;;;4.60;3.50;;;29.40;99.90;;;;;;4965659;28;20521;-77
2021/06/17 12:10:22;;;;;;;3.50;3.30;;;29.40;99.90;;;;;;4969660;28;20523;-78
2021/06/17 12:12:54;;;;;;;3.30;3.10;;;29.40;99.90;;;;;;4972250;28;20899;-79
2021/06/17 12:15:24;;;;;;;3.30;3.10;;;29.40;99.90;;;;;;4970958;28;21077;-79
2021/06/17 12:17:53;;;;;;;3.87;3.53;;;29.40;99.90;;;;;;4971423;28;20455;-77
2021/06/17 12:20:27;;;;;;;3.10;2.90;;;29.50;99.90;;;;;;4970191;28;20572;-80
2021/06/17 12:23:10;;;;;;;3.13;2.90;;;29.50;99.90;;;;;;4952420;28;20506;-78
2021/06/17 12:25:43;;;;;;;2.97;2.70;;;29.50;99.90;;;;;;4959563;28;20474;-77
2021/06/17 12:28:13;;;;;;;3.73;2.77;;;29.50;99.90;;;;;;4966968;28;20461;-79
2021/06/17 12:30:43;;;;;;;2.43;2.13;;;29.60;99.90;;;;;;4962319;28;20917;-78
2021/06/17 12:33:14;;;;;;;3.50;3.27;;;29.50;99.90;;;;;;4953290;28;20448;-82
2021/06/17 12:35:49;;;;;;;2.73;2.53;;;29.50;99.90;;;;;;4970152;28;20467;-78
2021/06/17 12:38:25;;;;;;;3.27;3.00;;;29.50;99.90;;;;;;4969967;28;20466;-78
2021/06/17 12:40:56;;;;;;;4.07;3.73;;;29.70;99.90;;;;;;4962408;28;21073;-80
2021/06/17 12:43:25;;;;;;;3.63;3.20;;;29.70;99.90;;;;;;4970151;28;20441;-77
2021/06/17 12:46:05;;;;;;;4.13;3.00;;;29.80;99.90;;;;;;4971408;28;21049;-81
2021/06/17 12:48:59;;;;;;;4.53;2.93;;;29.80;99.90;;;;;;4968969;28;20486;-80
2021/06/17 12:54:23;;;;;;;3.53;3.00;;;29.80;99.90;;;;;;4965203;28;20514;-77
2021/06/17 12:56:54;;;;;;;3.20;2.97;;;29.80;99.90;;;;;;4960643;28;20902;-77
2021/06/17 12:59:38;;;;;;;3.20;2.90;;;29.80;99.90;;;;;;4964647;28;20455;-79
2021/06/17 13:02:07;;;;;;;3.13;2.90;;;29.90;99.90;;;;;;4966390;28;20486;-79
2021/06/17 13:04:36;;;;;;;3.03;2.83;;;29.80;99.90;;;;;;4963215;28;20767;-79
2021/06/17 13:07:19;;;;;;;2.87;2.70;;;29.90;99.90;;;;;;4958787;28;20492;-81
2021/06/17 13:09:48;;;;;;;3.73;2.63;;;29.90;99.90;;;;;;4970989;28;20482;-78
2021/06/17 13:12:21;;;;;;;2.67;2.47;;;29.90;99.90;;;;;;4970990;28;20903;-78
2021/06/17 13:15:05;;;;;;;2.50;2.40;;;29.90;99.90;;;;;;4970689;28;20993;-78
2021/06/17 13:17:34;;;;;;;2.90;2.70;;;29.80;99.90;;;;;;4968493;28;20449;-79